Terminal Aerodrome Forecast
Issued by NWS Duluth, MN

Home | Current Version | Previous Version | Text Only | Print | Product List | Glossary On
Versions: 1 2 3 4 5 6 7 8 9 10 11 12 13 14 15 16 17 18 19 20 21 22 23 24 25 26
000
FTUS43 KDLH 211100
TAFDLH
TAF
KDLH 211140Z 2112/2212 17010KT 6SM -FZDZSN BR OVC006
     FM211700 14011KT 6SM -SN OVC008
     FM212100 13012KT 6SM BR OVC008
     FM220200 12009KT 3SM -SN BR OVC004
     FM220700 12005KT 1SM -SN BR OVC003=

USA.gov is the U.S. government's official web portal to all federal, state and local government web resources and services.